Latest Weather Observations for Mt Wellington

IDT60901

Issued at 12:01 pm EST Tuesday 28 April 2015 (issued every 10 minutes, with the page automatically refreshed every 10 minutes)

About weather observations | Map of Hobart area stations | Latest observations for Hobart area | Other Formats
Station Details ID: 094087 Name: MOUNT WELLINGTON Lat: -42.90 Lon: 147.24 Height: 1260.47 m
Data from the previous 72 hours. | See also: Recent months at Mt Wellington
Date/Time
EST
Tmp

°C
App
Tmp
°C
Dew
Point
°C
Rel
Hum
%
Delta-T

°C
Wind Press
QNH
hPa
Press
MSL
hPa
Rain
since
9 am
mm
Dir
 
Spd
km/h
Gust
km/h
Spd
kts
Gust
kts
28/12:00pm 3.4 -0.6 3.1 98 0.1 SSW 13 20 7 11 - - 0.0
28/11:30am 3.6 -1.6 3.3 98 0.1 SW 20 30 11 16 - - 0.0
28/11:00am 2.5 -3.3 2.2 98 0.1 SW 22 30 12 16 - - 0.0
28/10:30am 2.3 -6.8 2.0 98 0.1 SW 39 48 21 26 - - 0.0
28/10:00am 1.7 -9.2 1.4 98 0.1 SW 48 56 26 30 - - 0.0
28/09:30am 1.6 -9.3 1.3 98 0.1 SW 48 61 26 33 - - 0.0
28/09:00am 1.4 -7.8 1.1 98 0.1 WSW 39 54 21 29 - - 0.4
28/08:30am 1.4 -6.5 1.1 98 0.1 SW 32 43 17 23 - - 0.2
28/08:00am 1.2 -8.1 0.9 98 0.1 SW 39 48 21 26 - - 0.2
28/07:30am 0.8 -9.5 0.5 98 0.1 WSW 44 54 24 29 - - 0.2
28/07:00am 0.5 -10.2 0.2 98 0.1 SW 46 57 25 31 - - 0.2
28/06:30am 0.4 -11.4 0.1 98 0.1 WSW 52 65 28 35 - - 0.2
28/06:15am 0.4 -10.7 0.1 98 0.1 SW 48 70 26 38 - - 0.2
28/06:00am 0.6 -9.7 0.3 98 0.1 SW 44 56 24 30 - - 0.2
28/05:30am 0.6 -9.5 0.3 98 0.1 WSW 43 54 23 29 - - 0.2
28/05:00am 0.6 -9.5 0.3 98 0.1 WSW 43 54 23 29 - - 0.2
28/04:30am 0.5 -9.8 0.2 98 0.1 SW 44 56 24 30 - - 0.2
28/04:00am 0.6 -9.5 0.3 98 0.1 SW 43 54 23 29 - - 0.2
28/03:30am 0.5 -11.0 0.2 98 0.1 SW 50 59 27 32 - - 0.2
28/03:00am 0.7 -10.0 0.4 98 0.1 SW 46 54 25 29 - - 0.2
28/02:30am 0.8 -10.2 0.5 98 0.1 SW 48 57 26 31 - - 0.2
28/02:00am 0.7 -11.1 0.4 98 0.1 SW 52 63 28 34 - - 0.2
28/01:30am 0.9 -9.7 0.6 98 0.1 SW 46 56 25 30 - - 0.0
28/01:00am 0.9 -9.4 0.6 98 0.1 SW 44 56 24 30 - - 0.0
28/12:30am 0.8 -10.2 0.5 98 0.1 SW 48 59 26 32 - - 0.0
28/12:00am 0.7 -11.1 0.4 98 0.1 SW 52 61 28 33 - - 0.0
 
Date/Time
EST
Tmp

°C
App
Tmp
°C
Dew
Point
°C
Rel
Hum
%
Delta-T

°C
Wind Press
QNH
hPa
Press
MSL
hPa
Rain
since
9 am
mm
Dir
 
Spd
km/h
Gust
km/h
Spd
kts
Gust
kts
27/11:30pm 0.8 -10.2 0.5 98 0.1 SW 48 59 26 32 - - 0.0
27/11:00pm 0.8 -10.6 0.5 98 0.1 SW 50 57 27 31 - - 0.0
27/10:30pm 0.6 -11.2 0.3 98 0.1 SW 52 61 28 33 - - 0.0
27/10:00pm 0.5 -8.5 0.2 98 0.1 SW 37 46 20 25 - - 0.0
27/09:30pm 0.5 -9.8 0.2 98 0.1 WSW 44 52 24 28 - - 0.0
27/09:00pm 0.6 -9.7 0.3 98 0.1 SW 44 59 24 32 - - 0.0
27/08:30pm 0.6 -8.4 0.3 98 0.1 WSW 37 46 20 25 - - 0.0
27/08:00pm 0.6 -8.0 0.3 98 0.1 SW 35 43 19 23 - - 0.0
27/07:30pm 0.6 -8.0 0.3 98 0.1 SW 35 43 19 23 - - 0.0
27/07:00pm 0.8 -8.1 0.5 98 0.1 SW 37 46 20 25 - - 0.0
27/06:30pm 0.9 -8.8 0.6 98 0.1 SW 41 46 22 25 - - 0.0
27/06:00pm 1.2 -7.3 0.9 98 0.1 SW 35 50 19 27 - - 0.0
27/05:30pm 1.3 -8.7 1.0 98 0.1 SW 43 56 23 30 - - 0.0
27/05:00pm 1.3 -8.7 1.0 98 0.1 SW 43 54 23 29 - - 0.0
27/04:30pm 1.5 -6.6 1.2 98 0.1 SW 33 46 18 25 - - 0.0
27/04:00pm 1.6 -6.5 1.3 98 0.1 WSW 33 44 18 24 - - 0.0
27/03:30pm 2.0 -5.8 1.7 98 0.1 WSW 32 43 17 23 - - 0.0
27/03:00pm 2.2 -5.8 1.9 98 0.1 WSW 33 44 18 24 - - 0.0
27/02:30pm 2.3 -5.5 1.9 97 0.2 WSW 32 43 17 23 - - 0.0
27/02:00pm 2.6 -5.3 2.2 97 0.2 WSW 33 43 18 23 - - 0.0
27/01:30pm 2.4 -5.9 2.1 98 0.1 WSW 35 48 19 26 - - 0.0
27/01:00pm 2.2 -6.1 1.9 98 0.1 WSW 35 46 19 25 - - 0.0
27/12:33pm 2.1 -6.3 1.8 98 0.1 SW 35 56 19 30 - - 0.0
27/12:30pm 1.8 -7.0 1.5 98 0.1 SW 37 56 20 30 - - 0.0
27/12:00pm 1.9 -6.9 1.6 98 0.1 SW 37 50 20 27 - - 0.0
27/11:30am 1.8 -8.7 1.5 98 0.1 SW 46 59 25 32 - - 0.0
27/11:00am 1.5 -9.4 1.2 98 0.1 SW 48 61 26 33 - - 0.0
27/10:30am 1.2 -8.4 0.9 98 0.1 WSW 41 52 22 28 - - 0.0
27/10:00am 0.9 -7.1 0.6 98 0.1 WSW 32 41 17 22 - - 0.0
27/09:30am 0.8 -6.8 0.5 98 0.1 WSW 30 41 16 22 - - 0.0
27/09:29am 0.8 -6.8 0.5 98 0.1 WSW 30 41 16 22 - - 0.0
27/09:00am 0.6 -9.1 0.3 98 0.1 SW 41 54 22 29 - - 2.4
27/08:30am 0.3 -8.7 0.0 98 0.1 SW 37 44 20 24 - - 2.4
27/08:00am 0.0 -9.1 -0.3 98 0.1 SW 37 48 20 26 - - 2.4
27/07:30am 0.0 -9.4 -0.3 98 0.1 SW 39 44 21 24 - - 2.4
27/07:00am -0.1 -9.6 -0.4 98 0.1 SW 39 43 21 23 - - 2.4
27/06:30am -0.2 -9.7 -0.5 98 0.1 SW 39 50 21 27 - - 2.4
27/06:00am 0.0 -9.8 -0.3 98 0.1 SW 41 48 22 26 - - 2.4
27/05:30am -0.2 -10.6 -0.5 98 0.1 SW 44 54 24 29 - - 2.4
27/05:00am 0.0 -10.8 -0.3 98 0.1 SW 46 56 25 30 - - 2.2
27/04:30am -0.1 -10.3 -0.4 98 0.1 SW 43 56 23 30 - - 2.2
27/04:00am -0.1 -9.2 -0.4 98 0.1 SW 37 48 20 26 - - 2.2
27/03:30am 0.0 -9.4 -0.3 98 0.1 SW 39 50 21 27 - - 2.2
27/03:00am 0.0 -8.1 -0.3 98 0.1 SW 32 44 17 24 - - 2.2
27/02:30am 0.0 -8.7 -0.3 98 0.1 SW 35 46 19 25 - - 2.2
27/02:00am 0.0 -8.7 -0.3 98 0.1 SW 35 46 19 25 - - 2.0
27/01:30am -0.1 -9.2 -0.4 98 0.1 SW 37 48 20 26 - - 2.0
27/01:00am 0.0 -8.3 -0.3 98 0.1 SW 33 44 18 24 - - 1.8
27/12:30am 0.0 -8.7 -0.3 98 0.1 WSW 35 54 19 29 - - 1.8
27/12:23am -0.1 -8.8 -0.4 98 0.1 WSW 35 54 19 29 - - 1.8
27/12:00am -0.2 -8.9 -0.5 98 0.1 WSW 35 50 19 27 - - 1.8
 
Date/Time
EST
Tmp

°C
App
Tmp
°C
Dew
Point
°C
Rel
Hum
%
Delta-T

°C
Wind Press
QNH
hPa
Press
MSL
hPa
Rain
since
9 am
mm
Dir
 
Spd
km/h
Gust
km/h
Spd
kts
Gust
kts
26/11:30pm 0.0 -10.2 -0.3 98 0.1 WSW 43 57 23 31 - - 1.8
26/11:00pm -0.2 -10.6 -0.5 98 0.1 SW 44 56 24 30 - - 1.8
26/10:41pm 0.0 -10.2 -0.3 98 0.1 SW 43 61 23 33 - - 1.8
26/10:30pm 0.0 -10.8 -0.3 98 0.1 SW 46 59 25 32 - - 1.6
26/10:18pm 0.0 -9.4 -0.3 98 0.1 SW 39 57 21 31 - - 1.6
26/10:00pm 0.0 -9.4 -0.3 98 0.1 SW 39 52 21 28 - - 1.6
26/09:33pm -0.1 -8.8 -0.4 98 0.1 WSW 35 54 19 29 - - 1.6
26/09:30pm -0.1 -8.2 -0.4 98 0.1 WSW 32 48 17 26 - - 1.6
26/09:16pm -0.1 -8.8 -0.4 98 0.1 WSW 35 54 19 29 - - 1.6
26/09:00pm -0.2 -10.0 -0.5 98 0.1 SW 41 56 22 30 - - 1.6
26/08:31pm -0.2 -9.3 -0.5 98 0.1 WSW 37 57 20 31 - - 1.6
26/08:30pm -0.2 -9.7 -0.5 98 0.1 WSW 39 57 21 31 - - 1.6
26/08:08pm 0.1 -8.6 -0.2 98 0.1 WSW 35 54 19 29 - - 1.6
26/08:00pm 0.2 -8.4 -0.1 98 0.1 WSW 35 50 19 27 - - 1.6
26/07:30pm 0.6 -7.0 0.3 98 0.1 SW 30 41 16 22 - - 1.6
26/07:00pm 0.9 -6.3 0.6 98 0.1 WSW 28 43 15 23 - - 1.6
26/06:30pm 0.9 -7.1 0.6 98 0.1 WSW 32 44 17 24 - - 1.4
26/06:05pm 1.0 -6.2 0.7 98 0.1 WSW 28 48 15 26 - - 1.4
26/06:00pm 1.0 -5.4 0.7 98 0.1 WSW 24 37 13 20 - - 1.4
26/05:47pm 1.4 -6.1 1.1 98 0.1 WSW 30 48 16 26 - - 1.0
26/05:30pm 1.5 -6.4 1.2 98 0.1 WSW 32 46 17 25 - - 1.0
26/05:00pm 1.6 -6.8 1.3 98 0.1 WSW 35 44 19 24 - - 0.8
26/04:30pm 1.4 -6.1 1.1 98 0.1 WSW 30 43 16 23 - - 0.6
26/04:00pm 1.8 -6.2 1.4 97 0.2 SW 33 44 18 24 - - 0.0
26/03:30pm 2.0 -7.6 1.4 96 0.2 WSW 41 50 22 27 - - 0.0
26/03:00pm 2.3 -6.8 1.7 96 0.3 WSW 39 48 21 26 - - 0.0
26/02:30pm 2.4 -6.0 1.4 93 0.4 WSW 35 57 19 31 - - 0.0
26/02:29pm 2.4 -5.6 1.4 93 0.4 WSW 33 57 18 31 - - 0.0
26/02:00pm 3.0 -5.3 2.3 95 0.3 SW 35 46 19 25 - - 0.0
26/01:42pm 2.1 -7.4 1.5 96 0.3 WSW 41 59 22 32 - - 0.0
26/01:30pm 2.3 -4.7 1.9 97 0.2 WSW 28 43 15 23 - - 0.0
26/01:00pm 2.8 -5.9 2.1 95 0.3 W 37 50 20 27 - - 0.0
26/12:47pm 3.3 -4.9 2.7 96 0.3 WSW 35 56 19 30 - - 0.0
26/12:30pm 2.2 -5.8 1.8 97 0.2 WSW 33 44 18 24 - - 0.0
26/12:00pm 2.3 -6.4 1.9 97 0.2 WSW 37 48 20 26 - - 0.0
26/11:30am 2.1 -6.3 1.8 98 0.1 WSW 35 50 19 27 - - 0.0
26/11:00am 1.3 -7.6 1.0 98 0.1 WSW 37 50 20 27 - - 0.0
26/10:30am 0.7 -8.3 0.4 98 0.1 WSW 37 46 20 25 - - 0.0
26/10:05am 0.1 -3.1 -0.2 98 0.1 WSW 6 39 3 21 - - 0.0
26/10:00am 0.0 -2.0 -0.3 98 0.1 CALM 0 0 0 0 - - 0.0
26/09:30am -0.5 -2.6 -0.8 98 0.1 CALM 0 0 0 0 - - 0.0
26/09:00am -0.4 -2.5 -0.7 98 0.1 CALM 0 0 0 0 - - 1.6
26/08:30am -0.5 -2.6 -0.8 98 0.1 CALM 0 0 0 0 - - 1.6
26/08:00am -0.5 -2.6 -0.8 98 0.1 CALM 0 0 0 0 - - 1.6
26/07:30am -0.6 -2.7 -0.9 98 0.1 CALM 0 0 0 0 - - 1.6
26/07:00am -0.7 -2.8 -1.0 98 0.1 CALM 0 0 0 0 - - 1.6
26/06:30am -0.8 -2.9 -1.1 98 0.1 CALM 0 0 0 0 - - 1.6
26/06:00am -0.7 -2.8 -1.0 98 0.1 CALM 0 0 0 0 - - 1.4
26/05:30am -0.7 -2.8 -1.0 98 0.1 CALM 0 0 0 0 - - 1.4
26/05:00am -0.5 -2.6 -0.8 98 0.1 CALM 0 0 0 0 - - 1.4
26/04:30am -1.0 -7.0 -1.3 98 0.1 WSW 20 30 11 16 - - 1.4
26/04:00am -0.9 -8.0 -1.2 98 0.1 WSW 26 32 14 17 - - 1.4
26/03:30am -0.4 -7.0 -0.7 98 0.1 WSW 24 33 13 18 - - 1.4
26/03:00am -0.1 -5.9 -0.4 98 0.1 WSW 20 24 11 13 - - 1.4
26/02:30am 0.1 -5.1 -0.2 98 0.1 W 17 22 9 12 - - 1.4
26/02:00am 0.2 -5.4 -0.1 98 0.1 W 19 26 10 14 - - 1.2
26/01:30am 0.3 -4.9 0.0 98 0.1 W 17 24 9 13 - - 1.2
26/01:00am 0.4 -5.2 0.1 98 0.1 WSW 19 24 10 13 - - 1.2
26/12:30am 0.4 -4.8 0.1 98 0.1 WSW 17 22 9 12 - - 1.2
26/12:00am 0.3 -4.5 0.0 98 0.1 WSW 15 19 8 10 - - 1.2
 
Date/Time
EST
Tmp

°C
App
Tmp
°C
Dew
Point
°C
Rel
Hum
%
Delta-T

°C
Wind Press
QNH
hPa
Press
MSL
hPa
Rain
since
9 am
mm
Dir
 
Spd
km/h
Gust
km/h
Spd
kts
Gust
kts
25/11:30pm 0.4 -4.0 0.1 98 0.1 WSW 13 17 7 9 - - 1.2
25/11:00pm 0.5 -3.9 0.2 98 0.1 WSW 13 17 7 9 - - 1.2
25/10:30pm 0.4 -4.4 0.1 98 0.1 WSW 15 19 8 10 - - 1.2
25/10:00pm 0.7 -3.3 0.4 98 0.1 WSW 11 13 6 7 - - 1.0
25/09:30pm 0.8 -3.6 0.5 98 0.1 WSW 13 15 7 8 - - 1.0
25/09:00pm 0.8 -3.2 0.5 98 0.1 WSW 11 13 6 7 - - 1.0
25/08:30pm 0.8 -4.0 0.5 98 0.1 WSW 15 20 8 11 - - 1.0
25/08:00pm 0.8 -5.3 0.5 98 0.1 SW 22 24 12 13 - - 1.0
25/07:30pm 0.8 -5.3 0.5 98 0.1 SW 22 24 12 13 - - 0.8
25/07:00pm 0.8 -5.3 0.5 98 0.1 SSW 22 26 12 14 - - 0.8
25/06:30pm 1.5 -4.1 1.2 98 0.1 SSW 20 24 11 13 - - 0.6
25/06:00pm 1.6 -4.4 1.3 98 0.1 SW 22 26 12 14 - - 0.6
25/05:30pm 1.9 -3.6 1.6 98 0.1 SW 20 24 11 13 - - 0.4
25/05:00pm 1.9 -3.6 1.6 98 0.1 SW 20 24 11 13 - - 0.4
25/04:30pm 2.1 -2.5 1.8 98 0.1 SW 15 19 8 10 - - 0.2
25/04:00pm 2.4 -2.9 2.1 98 0.1 SW 19 24 10 13 - - 0.0
25/03:30pm 2.7 -2.7 2.4 98 0.1 SW 20 26 11 14 - - 0.0
25/03:00pm 2.7 -2.1 2.4 98 0.1 SW 17 20 9 11 - - 0.0
25/02:30pm 2.7 -2.7 2.4 98 0.1 SW 20 24 11 13 - - 0.0
25/02:00pm 2.8 -2.6 2.5 98 0.1 WSW 20 26 11 14 - - 0.0
25/01:30pm 3.2 -1.9 2.9 98 0.1 WSW 19 22 10 12 - - 0.0
25/01:00pm 3.0 -1.8 2.7 98 0.1 WSW 17 22 9 12 - - 0.0
25/12:30pm 3.6 -0.7 3.3 98 0.1 W 15 19 8 10 - - 0.0

Latest Capital City Observations: Canberra | Sydney | Melbourne | Brisbane | Adelaide | Perth | Hobart | Darwin

Other Formats:

Comma delimited format used in spreadsheet applications
http://www.bom.gov.au/fwo/IDT60901/IDT60901.95979.axf

JavaScript Object Notation format (JSON) in row-major order
http://www.bom.gov.au/fwo/IDT60901/IDT60901.95979.json